AAL2229 KLAX-KLAS
Flight info
| Callsign | AAL2229 |
|---|---|
| Flight time | N/A |
| Altitude | 27000 |
| Route | ORCKA5 MISEN RNDRZ4 |
| Aircraft | B38M/M-SDE1FGHILORVWXY/HB1 |
Departure
| Time | 2026-04-23 18:45 |
|---|---|
| Airport | Los Angeles International Airport (KLAX) |
Arrival
| Time | N/A |
|---|---|
| Airport | Harry Reid International Airport (KLAS) |
| Time | Latitude | Longitude | Altitude | Speed | Heading |
|---|---|---|---|---|---|
| 2026-04-23 18:29 | 33.94681 | -118.41031 | 98 ft | 0 kts | 188° |
| 2026-04-23 18:37 | 33.94695 | -118.41029 | 98 ft | 4 kts | 180° |
| 2026-04-23 18:37 | 33.94720 | -118.41034 | 98 ft | 4 kts | 149° |
| 2026-04-23 18:37 | 33.94734 | -118.41054 | 98 ft | 3 kts | 88° |
| 2026-04-23 18:37 | 33.94733 | -118.41059 | 99 ft | 2 kts | 83° |
| 2026-04-23 18:42 | 33.94735 | -118.41045 | 99 ft | 7 kts | 83° |
| 2026-04-23 18:42 | 33.94748 | -118.40929 | 101 ft | 16 kts | 77° |
| 2026-04-23 18:42 | 33.94810 | -118.40875 | 101 ft | 10 kts | 21° |
| 2026-04-23 18:43 | 33.94841 | -118.40806 | 103 ft | 11 kts | 81° |
| 2026-04-23 18:43 | 33.94856 | -118.40671 | 102 ft | 23 kts | 83° |
| 2026-04-23 18:43 | 33.94880 | -118.40442 | 102 ft | 30 kts | 83° |
| 2026-04-23 18:43 | 33.94902 | -118.40225 | 102 ft | 22 kts | 83° |
| 2026-04-23 18:44 | 33.94922 | -118.40035 | 102 ft | 24 kts | 82° |
| 2026-04-23 18:44 | 33.94975 | -118.39916 | 106 ft | 12 kts | 15° |
| 2026-04-23 18:44 | 33.95030 | -118.39941 | 110 ft | 9 kts | 303° |
| 2026-04-23 18:44 | 33.95033 | -118.40043 | 111 ft | 19 kts | 264° |
| 2026-04-23 18:45 | 33.94991 | -118.40446 | 110 ft | 89 kts | 263° |
| 2026-04-23 18:45 | 33.94884 | -118.41499 | 111 ft | 161 kts | 263° |
| 2026-04-23 18:45 | 33.94723 | -118.42970 | 708 ft | 175 kts | 261° |
| 2026-04-23 18:45 | 33.94530 | -118.44406 | 1765 ft | 176 kts | 261° |
| 2026-04-23 18:46 | 33.94362 | -118.45836 | 2813 ft | 170 kts | 263° |
| 2026-04-23 18:46 | 33.94184 | -118.47280 | 3584 ft | 182 kts | 262° |
| 2026-04-23 18:46 | 33.93989 | -118.48845 | 4269 ft | 195 kts | 262° |
| 2026-04-23 18:46 | 33.93785 | -118.50499 | 5086 ft | 204 kts | 261° |
| 2026-04-23 18:47 | 33.93150 | -118.52094 | 5672 ft | 227 kts | 223° |
| 2026-04-23 18:47 | 33.91686 | -118.52926 | 6279 ft | 246 kts | 184° |
| 2026-04-23 18:47 | 33.89980 | -118.52484 | 6962 ft | 263 kts | 148° |
| 2026-04-23 18:47 | 33.88711 | -118.50852 | 7645 ft | 279 kts | 115° |
| 2026-04-23 18:48 | 33.88357 | -118.48551 | 8341 ft | 291 kts | 81° |
| 2026-04-23 18:48 | 33.89106 | -118.46334 | 9340 ft | 290 kts | 49° |
| 2026-04-23 18:48 | 33.90663 | -118.44770 | 10131 ft | 296 kts | 27° |
| 2026-04-23 18:48 | 33.92394 | -118.43283 | 10688 ft | 319 kts | 40° |
| 2026-04-23 18:49 | 33.93925 | -118.41247 | 11305 ft | 337 kts | 47° |
| 2026-04-23 18:49 | 33.95417 | -118.38998 | 12022 ft | 347 kts | 49° |
| 2026-04-23 18:49 | 33.96880 | -118.36652 | 12913 ft | 353 kts | 50° |
| 2026-04-23 18:49 | 33.98335 | -118.34230 | 13721 ft | 360 kts | 50° |
| 2026-04-23 18:50 | 33.99301 | -118.32599 | 14220 ft | 364 kts | 51° |
| 2026-04-23 18:50 | 34.01243 | -118.29257 | 15203 ft | 371 kts | 52° |
| 2026-04-23 18:50 | 34.02711 | -118.26673 | 15935 ft | 376 kts | 52° |
| 2026-04-23 18:50 | 34.04197 | -118.24053 | 16654 ft | 381 kts | 52° |
| 2026-04-23 18:51 | 34.05699 | -118.21401 | 17360 ft | 386 kts | 51° |
| 2026-04-23 18:51 | 34.07222 | -118.18711 | 18070 ft | 390 kts | 52° |
| 2026-04-23 18:51 | 34.08759 | -118.15992 | 18707 ft | 395 kts | 51° |
| 2026-04-23 18:51 | 34.10314 | -118.13240 | 19303 ft | 399 kts | 52° |
| 2026-04-23 18:52 | 34.11884 | -118.10459 | 19905 ft | 403 kts | 52° |
| 2026-04-23 18:52 | 34.13444 | -118.07694 | 20487 ft | 406 kts | 52° |
| 2026-04-23 18:52 | 34.15040 | -118.04863 | 21059 ft | 410 kts | 52° |
| 2026-04-23 18:52 | 34.16653 | -118.02001 | 21620 ft | 414 kts | 52° |
| 2026-04-23 18:53 | 34.18278 | -117.99112 | 22203 ft | 418 kts | 52° |
| 2026-04-23 18:53 | 34.19916 | -117.96200 | 22768 ft | 421 kts | 52° |
| 2026-04-23 18:53 | 34.21572 | -117.93253 | 23318 ft | 426 kts | 52° |
| 2026-04-23 18:53 | 34.23239 | -117.90284 | 23866 ft | 429 kts | 52° |
| 2026-04-23 18:54 | 34.24924 | -117.87280 | 24252 ft | 434 kts | 52° |
| 2026-04-23 18:54 | 34.26622 | -117.84251 | 24707 ft | 437 kts | 52° |
| 2026-04-23 18:54 | 34.28336 | -117.81191 | 25124 ft | 441 kts | 52° |
| 2026-04-23 18:54 | 34.30040 | -117.78144 | 25511 ft | 445 kts | 52° |
| 2026-04-23 18:55 | 34.31777 | -117.75038 | 25990 ft | 447 kts | 52° |
| 2026-04-23 18:55 | 34.33527 | -117.71908 | 26359 ft | 451 kts | 52° |
| 2026-04-23 18:55 | 34.35322 | -117.68779 | 26765 ft | 454 kts | 50° |
| 2026-04-23 18:55 | 34.37191 | -117.65662 | 26998 ft | 460 kts | 51° |
| 2026-04-23 18:56 | 34.38441 | -117.63563 | 27044 ft | 467 kts | 51° |
| 2026-04-23 18:56 | 34.41019 | -117.59216 | 27069 ft | 483 kts | 51° |
| 2026-04-23 18:56 | 34.42993 | -117.55881 | 27087 ft | 493 kts | 51° |
| 2026-04-23 18:56 | 34.45009 | -117.52471 | 27099 ft | 502 kts | 51° |
| 2026-04-23 18:57 | 34.47059 | -117.49002 | 27113 ft | 510 kts | 51° |
| 2026-04-23 18:57 | 34.49106 | -117.45534 | 27125 ft | 514 kts | 51° |
| 2026-04-23 18:57 | 34.51184 | -117.42009 | 27149 ft | 514 kts | 51° |
| 2026-04-23 18:57 | 34.53261 | -117.38484 | 27150 ft | 514 kts | 51° |
| 2026-04-23 18:58 | 34.55339 | -117.34954 | 27148 ft | 514 kts | 51° |
| 2026-04-23 18:58 | 34.57413 | -117.31427 | 27148 ft | 513 kts | 51° |
| 2026-04-23 18:58 | 34.59485 | -117.27899 | 27143 ft | 513 kts | 51° |
| 2026-04-23 18:58 | 34.61554 | -117.24372 | 27140 ft | 513 kts | 51° |
| 2026-04-23 18:59 | 34.63622 | -117.20845 | 27127 ft | 512 kts | 51° |
| 2026-04-23 18:59 | 34.65685 | -117.17322 | 27118 ft | 512 kts | 51° |
| 2026-04-23 18:59 | 34.67720 | -117.13844 | 27101 ft | 512 kts | 51° |
| 2026-04-23 18:59 | 34.69779 | -117.10321 | 27078 ft | 512 kts | 51° |
| 2026-04-23 19:00 | 34.71840 | -117.06791 | 27058 ft | 512 kts | 51° |
| 2026-04-23 19:00 | 34.73902 | -117.03256 | 27064 ft | 512 kts | 51° |
| 2026-04-23 19:00 | 34.75956 | -116.99731 | 27071 ft | 512 kts | 51° |
| 2026-04-23 19:00 | 34.78016 | -116.96193 | 27073 ft | 512 kts | 51° |
| 2026-04-23 19:01 | 34.80071 | -116.92658 | 27075 ft | 512 kts | 51° |
| 2026-04-23 19:01 | 34.82127 | -116.89121 | 27085 ft | 512 kts | 51° |
| 2026-04-23 19:01 | 34.84182 | -116.85580 | 27082 ft | 512 kts | 51° |
| 2026-04-23 19:01 | 34.86232 | -116.82044 | 27087 ft | 512 kts | 51° |
| 2026-04-23 19:02 | 34.87592 | -116.79698 | 27084 ft | 512 kts | 51° |
| 2026-04-23 19:02 | 34.90312 | -116.74998 | 27082 ft | 512 kts | 51° |
| 2026-04-23 19:02 | 34.92363 | -116.71450 | 27083 ft | 513 kts | 51° |
| 2026-04-23 19:02 | 34.94418 | -116.67892 | 27077 ft | 513 kts | 51° |
| 2026-04-23 19:03 | 34.96470 | -116.64335 | 27077 ft | 513 kts | 51° |
| 2026-04-23 19:03 | 34.98523 | -116.60773 | 27068 ft | 513 kts | 51° |
| 2026-04-23 19:03 | 35.00572 | -116.57214 | 27058 ft | 513 kts | 51° |
| 2026-04-23 19:03 | 35.02621 | -116.53653 | 27052 ft | 513 kts | 51° |
| 2026-04-23 19:04 | 35.04673 | -116.50082 | 27053 ft | 514 kts | 51° |
| 2026-04-23 19:04 | 35.06724 | -116.46512 | 27057 ft | 514 kts | 51° |
| 2026-04-23 19:04 | 35.08748 | -116.42985 | 27055 ft | 514 kts | 51° |
| 2026-04-23 19:04 | 35.10924 | -116.39543 | 27044 ft | 509 kts | 43° |
| 2026-04-23 19:05 | 35.13349 | -116.36383 | 27060 ft | 510 kts | 42° |
| 2026-04-23 19:05 | 35.15779 | -116.33230 | 27054 ft | 510 kts | 42° |
| 2026-04-23 19:05 | 35.18212 | -116.30081 | 27052 ft | 510 kts | 42° |
| 2026-04-23 19:05 | 35.20637 | -116.26940 | 25983 ft | 512 kts | 42° |
| 2026-04-23 19:06 | 35.23088 | -116.23683 | 24576 ft | 527 kts | 44° |
| 2026-04-23 19:06 | 35.25516 | -116.20361 | 23901 ft | 521 kts | 43° |
| 2026-04-23 19:06 | 35.27866 | -116.17160 | 22909 ft | 506 kts | 43° |
| 2026-04-23 19:06 | 35.30199 | -116.13985 | 21651 ft | 497 kts | 43° |
| 2026-04-23 19:07 | 35.32487 | -116.10858 | 20434 ft | 489 kts | 44° |
| 2026-04-23 19:07 | 35.34736 | -116.07767 | 19247 ft | 481 kts | 44° |
| 2026-04-23 19:07 | 35.36941 | -116.04736 | 18068 ft | 473 kts | 44° |
| 2026-04-23 19:07 | 35.39110 | -116.01750 | 16773 ft | 465 kts | 45° |
| 2026-04-23 19:08 | 35.39758 | -116.00857 | 16396 ft | 0 kts | 45° |